sensor_id;sensor_type;location;lat;lon;timestamp;P1;durP1;ratioP1;P2;durP2;ratioP2
23670;SDS011;12012;51.998;7.614;2022-08-21T00:00:27;7.68;;;3.13;;
23670;SDS011;12012;51.998;7.614;2022-08-21T00:02:55;6.88;;;3.10;;
23670;SDS011;12012;51.998;7.614;2022-08-21T00:05:23;8.88;;;3.92;;
23670;SDS011;12012;51.998;7.614;2022-08-21T00:07:49;7.50;;;2.95;;
23670;SDS011;12012;51.998;7.614;2022-08-21T00:10:15;8.13;;;3.67;;
23670;SDS011;12012;51.998;7.614;2022-08-21T00:12:42;6.72;;;3.25;;
23670;SDS011;12012;51.998;7.614;2022-08-21T00:15:09;8.43;;;3.40;;
23670;SDS011;12012;51.998;7.614;2022-08-21T00:17:36;8.68;;;3.42;;
23670;SDS011;12012;51.998;7.614;2022-08-21T00:20:06;6.93;;;3.33;;
23670;SDS011;12012;51.998;7.614;2022-08-21T00:22:34;6.93;;;3.75;;
23670;SDS011;12012;51.998;7.614;2022-08-21T00:25:01;8.38;;;4.03;;
23670;SDS011;12012;51.998;7.614;2022-08-21T00:27:27;9.93;;;3.75;;
23670;SDS011;12012;51.998;7.614;2022-08-21T00:29:53;7.88;;;4.07;;
23670;SDS011;12012;51.998;7.614;2022-08-21T00:32:21;6.38;;;3.20;;
23670;SDS011;12012;51.998;7.614;2022-08-21T00:34:51;4.93;;;3.45;;
23670;SDS011;12012;51.998;7.614;2022-08-21T00:37:17;8.90;;;3.65;;
23670;SDS011;12012;51.998;7.614;2022-08-21T00:39:43;7.25;;;3.53;;
23670;SDS011;12012;51.998;7.614;2022-08-21T00:42:09;6.82;;;3.30;;
23670;SDS011;12012;51.998;7.614;2022-08-21T00:44:39;9.48;;;4.15;;
23670;SDS011;12012;51.998;7.614;2022-08-21T00:47:06;7.45;;;3.10;;
23670;SDS011;12012;51.998;7.614;2022-08-21T00:49:33;5.85;;;2.85;;
23670;SDS011;12012;51.998;7.614;2022-08-21T00:51:59;7.18;;;3.60;;
23670;SDS011;12012;51.998;7.614;2022-08-21T00:54:26;8.52;;;3.13;;
23670;SDS011;12012;51.998;7.614;2022-08-21T00:56:55;7.55;;;3.50;;
23670;SDS011;12012;51.998;7.614;2022-08-21T00:59:27;11.13;;;4.25;;
23670;SDS011;12012;51.998;7.614;2022-08-21T01:01:57;8.30;;;4.10;;
23670;SDS011;12012;51.998;7.614;2022-08-21T01:04:23;10.10;;;4.70;;
23670;SDS011;12012;51.998;7.614;2022-08-21T01:06:48;10.63;;;4.53;;
23670;SDS011;12012;51.998;7.614;2022-08-21T01:09:16;9.32;;;4.75;;
23670;SDS011;12012;51.998;7.614;2022-08-21T01:11:42;8.40;;;3.90;;
23670;SDS011;12012;51.998;7.614;2022-08-21T01:14:09;9.00;;;4.20;;
23670;SDS011;12012;51.998;7.614;2022-08-21T01:16:38;11.85;;;4.80;;
23670;SDS011;12012;51.998;7.614;2022-08-21T01:19:06;7.57;;;4.20;;
23670;SDS011;12012;51.998;7.614;2022-08-21T01:21:34;6.90;;;3.90;;
23670;SDS011;12012;51.998;7.614;2022-08-21T01:24:00;5.80;;;3.30;;
23670;SDS011;12012;51.998;7.614;2022-08-21T01:26:27;10.38;;;3.85;;
23670;SDS011;12012;51.998;7.614;2022-08-21T01:29:05;7.30;;;3.42;;
23670;SDS011;12012;51.998;7.614;2022-08-21T01:34:14;6.80;;;4.32;;
23670;SDS011;12012;51.998;7.614;2022-08-21T01:36:41;4.57;;;3.25;;
23670;SDS011;12012;51.998;7.614;2022-08-21T01:39:08;10.98;;;4.82;;
23670;SDS011;12012;51.998;7.614;2022-08-21T01:41:34;8.48;;;5.18;;
23670;SDS011;12012;51.998;7.614;2022-08-21T01:43:59;11.35;;;5.10;;
23670;SDS011;12012;51.998;7.614;2022-08-21T01:46:25;9.10;;;5.18;;
23670;SDS011;12012;51.998;7.614;2022-08-21T01:48:51;9.15;;;4.18;;
23670;SDS011;12012;51.998;7.614;2022-08-21T01:51:16;16.92;;;5.43;;
23670;SDS011;12012;51.998;7.614;2022-08-21T01:53:42;8.25;;;4.90;;
23670;SDS011;12012;51.998;7.614;2022-08-21T01:56:09;11.13;;;5.35;;
23670;SDS011;12012;51.998;7.614;2022-08-21T01:58:37;12.32;;;5.72;;
23670;SDS011;12012;51.998;7.614;2022-08-21T02:01:03;10.35;;;4.80;;
23670;SDS011;12012;51.998;7.614;2022-08-21T02:03:29;7.10;;;3.90;;
23670;SDS011;12012;51.998;7.614;2022-08-21T02:05:54;11.35;;;5.35;;
23670;SDS011;12012;51.998;7.614;2022-08-21T02:08:21;7.32;;;4.47;;
23670;SDS011;12012;51.998;7.614;2022-08-21T02:10:48;9.23;;;5.15;;
23670;SDS011;12012;51.998;7.614;2022-08-21T02:13:15;7.68;;;4.65;;
23670;SDS011;12012;51.998;7.614;2022-08-21T02:15:41;7.15;;;4.10;;
23670;SDS011;12012;51.998;7.614;2022-08-21T02:18:08;6.07;;;3.88;;
23670;SDS011;12012;51.998;7.614;2022-08-21T02:20:35;8.40;;;3.90;;
23670;SDS011;12012;51.998;7.614;2022-08-21T02:23:03;6.88;;;3.90;;
23670;SDS011;12012;51.998;7.614;2022-08-21T02:25:30;7.57;;;4.70;;
23670;SDS011;12012;51.998;7.614;2022-08-21T02:27:56;8.30;;;3.78;;
23670;SDS011;12012;51.998;7.614;2022-08-21T02:30:27;8.20;;;4.22;;
23670;SDS011;12012;51.998;7.614;2022-08-21T02:32:55;7.50;;;3.72;;
23670;SDS011;12012;51.998;7.614;2022-08-21T02:35:21;8.57;;;4.30;;
23670;SDS011;12012;51.998;7.614;2022-08-21T02:37:50;12.98;;;5.22;;
23670;SDS011;12012;51.998;7.614;2022-08-21T02:40:18;10.48;;;5.55;;
23670;SDS011;12012;51.998;7.614;2022-08-21T02:42:48;6.45;;;4.03;;
23670;SDS011;12012;51.998;7.614;2022-08-21T02:45:14;5.22;;;3.10;;
23670;SDS011;12012;51.998;7.614;2022-08-21T02:47:48;7.57;;;3.83;;
23670;SDS011;12012;51.998;7.614;2022-08-21T02:50:20;8.40;;;4.40;;
23670;SDS011;12012;51.998;7.614;2022-08-21T02:52:48;8.80;;;4.75;;
23670;SDS011;12012;51.998;7.614;2022-08-21T02:55:15;8.43;;;4.78;;
23670;SDS011;12012;51.998;7.614;2022-08-21T02:57:41;6.15;;;4.00;;
23670;SDS011;12012;51.998;7.614;2022-08-21T03:00:07;8.35;;;4.85;;
23670;SDS011;12012;51.998;7.614;2022-08-21T03:02:35;9.18;;;4.05;;
23670;SDS011;12012;51.998;7.614;2022-08-21T03:05:00;12.98;;;5.05;;
23670;SDS011;12012;51.998;7.614;2022-08-21T03:07:26;7.65;;;4.28;;
23670;SDS011;12012;51.998;7.614;2022-08-21T03:09:52;10.23;;;5.10;;
23670;SDS011;12012;51.998;7.614;2022-08-21T03:12:17;11.48;;;5.40;;
23670;SDS011;12012;51.998;7.614;2022-08-21T03:14:43;7.40;;;4.43;;
23670;SDS011;12012;51.998;7.614;2022-08-21T03:17:08;8.13;;;4.88;;
23670;SDS011;12012;51.998;7.614;2022-08-21T03:19:34;10.30;;;4.95;;
23670;SDS011;12012;51.998;7.614;2022-08-21T03:21:59;7.22;;;4.65;;
23670;SDS011;12012;51.998;7.614;2022-08-21T03:24:25;6.70;;;4.65;;
23670;SDS011;12012;51.998;7.614;2022-08-21T03:26:51;6.25;;;4.93;;
23670;SDS011;12012;51.998;7.614;2022-08-21T03:29:16;6.55;;;4.15;;
23670;SDS011;12012;51.998;7.614;2022-08-21T03:31:42;7.43;;;4.47;;
23670;SDS011;12012;51.998;7.614;2022-08-21T03:34:08;9.75;;;4.72;;
23670;SDS011;12012;51.998;7.614;2022-08-21T03:36:33;8.15;;;5.00;;
23670;SDS011;12012;51.998;7.614;2022-08-21T03:38:59;12.88;;;6.93;;
23670;SDS011;12012;51.998;7.614;2022-08-21T03:41:24;8.60;;;4.22;;
23670;SDS011;12012;51.998;7.614;2022-08-21T03:43:50;7.70;;;5.60;;
23670;SDS011;12012;51.998;7.614;2022-08-21T03:46:15;9.68;;;5.45;;
23670;SDS011;12012;51.998;7.614;2022-08-21T03:48:41;7.68;;;4.55;;
23670;SDS011;12012;51.998;7.614;2022-08-21T03:51:06;9.60;;;5.45;;
23670;SDS011;12012;51.998;7.614;2022-08-21T03:53:33;7.97;;;5.30;;
23670;SDS011;12012;51.998;7.614;2022-08-21T03:55:58;7.70;;;5.53;;
23670;SDS011;12012;51.998;7.614;2022-08-21T03:58:25;9.70;;;5.97;;
23670;SDS011;12012;51.998;7.614;2022-08-21T04:00:53;8.88;;;5.65;;
23670;SDS011;12012;51.998;7.614;2022-08-21T04:03:21;14.48;;;6.80;;
23670;SDS011;12012;51.998;7.614;2022-08-21T04:05:47;10.13;;;6.93;;
23670;SDS011;12012;51.998;7.614;2022-08-21T04:08:14;10.25;;;7.07;;
23670;SDS011;12012;51.998;7.614;2022-08-21T04:10:42;9.35;;;5.72;;
23670;SDS011;12012;51.998;7.614;2022-08-21T04:13:09;12.90;;;7.25;;
23670;SDS011;12012;51.998;7.614;2022-08-21T04:15:35;12.30;;;7.53;;
23670;SDS011;12012;51.998;7.614;2022-08-21T04:18:01;12.00;;;8.52;;
23670;SDS011;12012;51.998;7.614;2022-08-21T04:20:28;11.48;;;7.28;;
23670;SDS011;12012;51.998;7.614;2022-08-21T04:22:54;17.55;;;8.82;;
23670;SDS011;12012;51.998;7.614;2022-08-21T04:25:21;14.10;;;9.60;;
23670;SDS011;12012;51.998;7.614;2022-08-21T04:27:48;16.05;;;7.93;;
23670;SDS011;12012;51.998;7.614;2022-08-21T04:30:14;14.60;;;8.60;;
23670;SDS011;12012;51.998;7.614;2022-08-21T04:32:45;14.10;;;7.65;;
23670;SDS011;12012;51.998;7.614;2022-08-21T04:35:13;12.77;;;7.07;;
23670;SDS011;12012;51.998;7.614;2022-08-21T04:37:41;11.80;;;8.52;;
23670;SDS011;12012;51.998;7.614;2022-08-21T04:40:07;15.45;;;8.68;;
23670;SDS011;12012;51.998;7.614;2022-08-21T04:42:40;15.30;;;8.13;;
23670;SDS011;12012;51.998;7.614;2022-08-21T04:45:14;17.73;;;12.15;;
23670;SDS011;12012;51.998;7.614;2022-08-21T04:47:52;14.60;;;9.38;;
23670;SDS011;12012;51.998;7.614;2022-08-21T04:50:21;17.58;;;9.73;;
23670;SDS011;12012;51.998;7.614;2022-08-21T04:52:49;15.95;;;9.07;;
23670;SDS011;12012;51.998;7.614;2022-08-21T04:55:16;12.07;;;8.40;;
23670;SDS011;12012;51.998;7.614;2022-08-21T04:57:43;11.82;;;8.23;;
23670;SDS011;12012;51.998;7.614;2022-08-21T05:00:09;17.38;;;12.45;;
23670;SDS011;12012;51.998;7.614;2022-08-21T05:02:37;12.63;;;8.57;;
23670;SDS011;12012;51.998;7.614;2022-08-21T05:05:05;11.65;;;8.75;;
23670;SDS011;12012;51.998;7.614;2022-08-21T05:07:31;14.10;;;9.82;;
23670;SDS011;12012;51.998;7.614;2022-08-21T05:09:58;17.88;;;9.52;;
23670;SDS011;12012;51.998;7.614;2022-08-21T05:12:25;15.27;;;10.18;;
23670;SDS011;12012;51.998;7.614;2022-08-21T05:14:50;16.42;;;10.18;;
23670;SDS011;12012;51.998;7.614;2022-08-21T05:17:16;17.45;;;9.57;;
23670;SDS011;12012;51.998;7.614;2022-08-21T05:19:41;15.48;;;9.43;;
23670;SDS011;12012;51.998;7.614;2022-08-21T05:22:07;13.02;;;8.77;;
23670;SDS011;12012;51.998;7.614;2022-08-21T05:24:34;9.77;;;7.90;;
23670;SDS011;12012;51.998;7.614;2022-08-21T05:27:00;16.00;;;9.23;;
23670;SDS011;12012;51.998;7.614;2022-08-21T05:29:25;11.52;;;7.13;;
23670;SDS011;12012;51.998;7.614;2022-08-21T05:31:52;12.77;;;7.75;;
23670;SDS011;12012;51.998;7.614;2022-08-21T05:34:19;20.25;;;11.07;;
23670;SDS011;12012;51.998;7.614;2022-08-21T05:36:46;15.50;;;9.20;;
23670;SDS011;12012;51.998;7.614;2022-08-21T05:39:11;11.55;;;7.75;;
23670;SDS011;12012;51.998;7.614;2022-08-21T05:41:37;9.48;;;7.13;;
23670;SDS011;12012;51.998;7.614;2022-08-21T05:44:03;13.60;;;9.85;;
23670;SDS011;12012;51.998;7.614;2022-08-21T05:46:29;16.35;;;9.77;;
23670;SDS011;12012;51.998;7.614;2022-08-21T05:48:54;10.80;;;8.07;;
23670;SDS011;12012;51.998;7.614;2022-08-21T05:51:20;12.30;;;7.03;;
23670;SDS011;12012;51.998;7.614;2022-08-21T05:53:45;18.23;;;6.85;;
23670;SDS011;12012;51.998;7.614;2022-08-21T05:56:12;12.00;;;8.30;;
23670;SDS011;12012;51.998;7.614;2022-08-21T05:58:38;9.50;;;6.07;;
23670;SDS011;12012;51.998;7.614;2022-08-21T06:01:04;16.60;;;7.80;;
23670;SDS011;12012;51.998;7.614;2022-08-21T06:03:34;14.63;;;7.97;;
23670;SDS011;12012;51.998;7.614;2022-08-21T06:06:01;13.82;;;9.10;;
23670;SDS011;12012;51.998;7.614;2022-08-21T06:08:27;14.18;;;8.35;;
23670;SDS011;12012;51.998;7.614;2022-08-21T06:10:54;14.52;;;9.10;;
23670;SDS011;12012;51.998;7.614;2022-08-21T06:13:22;12.90;;;7.60;;
23670;SDS011;12012;51.998;7.614;2022-08-21T06:15:48;13.98;;;9.40;;
23670;SDS011;12012;51.998;7.614;2022-08-21T06:18:15;10.88;;;5.93;;
23670;SDS011;12012;51.998;7.614;2022-08-21T06:20:40;11.77;;;8.32;;
23670;SDS011;12012;51.998;7.614;2022-08-21T06:23:07;13.25;;;9.68;;
23670;SDS011;12012;51.998;7.614;2022-08-21T06:25:32;15.98;;;8.98;;
23670;SDS011;12012;51.998;7.614;2022-08-21T06:28:05;14.57;;;7.80;;
23670;SDS011;12012;51.998;7.614;2022-08-21T06:30:33;13.65;;;7.40;;
23670;SDS011;12012;51.998;7.614;2022-08-21T06:33:01;10.57;;;5.05;;
23670;SDS011;12012;51.998;7.614;2022-08-21T06:35:27;12.15;;;7.95;;
23670;SDS011;12012;51.998;7.614;2022-08-21T06:37:54;11.90;;;7.90;;
23670;SDS011;12012;51.998;7.614;2022-08-21T06:40:20;12.30;;;8.65;;
23670;SDS011;12012;51.998;7.614;2022-08-21T06:42:46;13.63;;;9.77;;
23670;SDS011;12012;51.998;7.614;2022-08-21T06:45:12;17.02;;;11.43;;
23670;SDS011;12012;51.998;7.614;2022-08-21T06:47:38;16.40;;;11.10;;
23670;SDS011;12012;51.998;7.614;2022-08-21T06:50:04;15.82;;;10.38;;
23670;SDS011;12012;51.998;7.614;2022-08-21T06:52:32;13.45;;;9.43;;
23670;SDS011;12012;51.998;7.614;2022-08-21T06:54:58;17.98;;;9.77;;
23670;SDS011;12012;51.998;7.614;2022-08-21T06:57:24;14.00;;;8.30;;
23670;SDS011;12012;51.998;7.614;2022-08-21T06:59:50;12.15;;;7.43;;
23670;SDS011;12012;51.998;7.614;2022-08-21T07:02:16;10.27;;;6.22;;
23670;SDS011;12012;51.998;7.614;2022-08-21T07:04:42;12.32;;;6.45;;
23670;SDS011;12012;51.998;7.614;2022-08-21T07:07:08;11.35;;;5.43;;
23670;SDS011;12012;51.998;7.614;2022-08-21T07:09:33;10.10;;;5.65;;
23670;SDS011;12012;51.998;7.614;2022-08-21T07:11:59;8.40;;;5.40;;
23670;SDS011;12012;51.998;7.614;2022-08-21T07:14:25;9.65;;;5.57;;
23670;SDS011;12012;51.998;7.614;2022-08-21T07:16:50;12.70;;;5.00;;
23670;SDS011;12012;51.998;7.614;2022-08-21T07:19:16;10.77;;;5.38;;
23670;SDS011;12012;51.998;7.614;2022-08-21T07:21:43;12.50;;;5.07;;
23670;SDS011;12012;51.998;7.614;2022-08-21T07:24:08;9.10;;;4.70;;
23670;SDS011;12012;51.998;7.614;2022-08-21T07:26:34;5.63;;;3.47;;
23670;SDS011;12012;51.998;7.614;2022-08-21T07:29:00;10.50;;;3.78;;
23670;SDS011;12012;51.998;7.614;2022-08-21T07:31:26;5.90;;;3.80;;
23670;SDS011;12012;51.998;7.614;2022-08-21T07:33:51;6.85;;;3.25;;
23670;SDS011;12012;51.998;7.614;2022-08-21T07:36:17;6.93;;;3.72;;
23670;SDS011;12012;51.998;7.614;2022-08-21T07:38:43;14.05;;;4.60;;
23670;SDS011;12012;51.998;7.614;2022-08-21T07:41:13;8.07;;;3.95;;
23670;SDS011;12012;51.998;7.614;2022-08-21T07:43:45;9.70;;;5.03;;
23670;SDS011;12012;51.998;7.614;2022-08-21T07:46:12;9.93;;;4.65;;
23670;SDS011;12012;51.998;7.614;2022-08-21T07:48:38;7.28;;;4.40;;
23670;SDS011;12012;51.998;7.614;2022-08-21T07:51:13;10.48;;;5.28;;
23670;SDS011;12012;51.998;7.614;2022-08-21T07:53:41;11.73;;;5.45;;
23670;SDS011;12012;51.998;7.614;2022-08-21T07:56:07;12.15;;;5.30;;
23670;SDS011;12012;51.998;7.614;2022-08-21T07:58:33;9.57;;;4.75;;
23670;SDS011;12012;51.998;7.614;2022-08-21T08:00:59;7.32;;;4.45;;
23670;SDS011;12012;51.998;7.614;2022-08-21T08:03:25;8.65;;;4.53;;
23670;SDS011;12012;51.998;7.614;2022-08-21T08:05:50;12.30;;;6.28;;
23670;SDS011;12012;51.998;7.614;2022-08-21T08:08:16;10.55;;;5.20;;
23670;SDS011;12012;51.998;7.614;2022-08-21T08:10:42;11.20;;;5.88;;
23670;SDS011;12012;51.998;7.614;2022-08-21T08:13:09;10.55;;;5.60;;
23670;SDS011;12012;51.998;7.614;2022-08-21T08:15:35;8.45;;;5.03;;
23670;SDS011;12012;51.998;7.614;2022-08-21T08:18:01;9.15;;;4.35;;
23670;SDS011;12012;51.998;7.614;2022-08-21T08:20:27;9.10;;;5.78;;
23670;SDS011;12012;51.998;7.614;2022-08-21T08:22:54;9.35;;;5.25;;
23670;SDS011;12012;51.998;7.614;2022-08-21T08:25:20;7.80;;;4.10;;
23670;SDS011;12012;51.998;7.614;2022-08-21T08:27:47;9.32;;;4.55;;
23670;SDS011;12012;51.998;7.614;2022-08-21T08:30:15;10.52;;;5.20;;
23670;SDS011;12012;51.998;7.614;2022-08-21T08:32:42;10.32;;;5.30;;
23670;SDS011;12012;51.998;7.614;2022-08-21T08:35:08;9.20;;;4.78;;
23670;SDS011;12012;51.998;7.614;2022-08-21T08:37:34;11.10;;;5.00;;
23670;SDS011;12012;51.998;7.614;2022-08-21T08:40:03;10.13;;;4.45;;
23670;SDS011;12012;51.998;7.614;2022-08-21T08:42:31;8.15;;;4.40;;
23670;SDS011;12012;51.998;7.614;2022-08-21T08:45:00;12.98;;;6.22;;
23670;SDS011;12012;51.998;7.614;2022-08-21T08:47:35;10.55;;;5.68;;
23670;SDS011;12012;51.998;7.614;2022-08-21T08:50:20;8.50;;;5.65;;
23670;SDS011;12012;51.998;7.614;2022-08-21T08:55:47;11.90;;;6.88;;
23670;SDS011;12012;51.998;7.614;2022-08-21T08:58:16;10.05;;;6.43;;
23670;SDS011;12012;51.998;7.614;2022-08-21T09:00:49;12.10;;;5.53;;
23670;SDS011;12012;51.998;7.614;2022-08-21T09:03:18;11.70;;;5.50;;
23670;SDS011;12012;51.998;7.614;2022-08-21T09:05:47;16.60;;;6.40;;
23670;SDS011;12012;51.998;7.614;2022-08-21T09:08:41;11.27;;;5.72;;
23670;SDS011;12012;51.998;7.614;2022-08-21T09:17:02;8.10;;;4.72;;
23670;SDS011;12012;51.998;7.614;2022-08-21T09:25:20;10.23;;;3.83;;
23670;SDS011;12012;51.998;7.614;2022-08-21T09:27:50;8.18;;;3.38;;
23670;SDS011;12012;51.998;7.614;2022-08-21T09:30:15;10.20;;;3.45;;
23670;SDS011;12012;51.998;7.614;2022-08-21T09:32:42;5.90;;;3.30;;
23670;SDS011;12012;51.998;7.614;2022-08-21T09:37:34;8.43;;;3.15;;
23670;SDS011;12012;51.998;7.614;2022-08-21T09:40:28;7.07;;;2.80;;
23670;SDS011;12012;51.998;7.614;2022-08-21T09:45:42;9.35;;;3.13;;
23670;SDS011;12012;51.998;7.614;2022-08-21T09:50:41;7.75;;;2.78;;
23670;SDS011;12012;51.998;7.614;2022-08-21T09:53:15;7.30;;;2.90;;
23670;SDS011;12012;51.998;7.614;2022-08-21T09:55:49;8.27;;;2.88;;
23670;SDS011;12012;51.998;7.614;2022-08-21T09:58:40;6.50;;;2.58;;
23670;SDS011;12012;51.998;7.614;2022-08-21T10:01:13;5.90;;;2.55;;
23670;SDS011;12012;51.998;7.614;2022-08-21T10:03:43;6.43;;;2.38;;
23670;SDS011;12012;51.998;7.614;2022-08-21T10:06:10;6.57;;;2.53;;
23670;SDS011;12012;51.998;7.614;2022-08-21T10:08:47;8.10;;;3.05;;
23670;SDS011;12012;51.998;7.614;2022-08-21T10:11:13;6.43;;;2.55;;
23670;SDS011;12012;51.998;7.614;2022-08-21T10:21:38;9.93;;;2.88;;
23670;SDS011;12012;51.998;7.614;2022-08-21T10:54:35;5.75;;;1.90;;
23670;SDS011;12012;51.998;7.614;2022-08-21T10:57:05;4.13;;;1.90;;
23670;SDS011;12012;51.998;7.614;2022-08-21T10:59:47;3.85;;;1.70;;
23670;SDS011;12012;51.998;7.614;2022-08-21T11:02:27;2.95;;;1.60;;
23670;SDS011;12012;51.998;7.614;2022-08-21T11:05:02;4.25;;;1.80;;
23670;SDS011;12012;51.998;7.614;2022-08-21T11:07:39;4.13;;;1.90;;
23670;SDS011;12012;51.998;7.614;2022-08-21T11:13:44;4.28;;;1.80;;
23670;SDS011;12012;51.998;7.614;2022-08-21T11:18:55;4.90;;;1.50;;
23670;SDS011;12012;51.998;7.614;2022-08-21T11:21:32;3.85;;;1.70;;
23670;SDS011;12012;51.998;7.614;2022-08-21T11:24:17;2.85;;;1.50;;
23670;SDS011;12012;51.998;7.614;2022-08-21T11:45:55;4.82;;;1.40;;
23670;SDS011;12012;51.998;7.614;2022-08-21T11:48:36;3.38;;;1.60;;
23670;SDS011;12012;51.998;7.614;2022-08-21T11:51:16;2.83;;;1.38;;
23670;SDS011;12012;51.998;7.614;2022-08-21T11:56:37;3.00;;;1.30;;
23670;SDS011;12012;51.998;7.614;2022-08-21T11:59:16;3.55;;;1.35;;
23670;SDS011;12012;51.998;7.614;2022-08-21T12:01:48;4.35;;;1.60;;
23670;SDS011;12012;51.998;7.614;2022-08-21T12:06:52;3.72;;;1.40;;
23670;SDS011;12012;51.998;7.614;2022-08-21T12:11:59;4.07;;;1.30;;
23670;SDS011;12012;51.998;7.614;2022-08-21T12:14:39;3.80;;;1.40;;
23670;SDS011;12012;51.998;7.614;2022-08-21T12:19:42;3.95;;;1.38;;
23670;SDS011;12012;51.998;7.614;2022-08-21T12:22:11;4.75;;;1.42;;
23670;SDS011;12012;51.998;7.614;2022-08-21T12:24:39;3.40;;;1.20;;
23670;SDS011;12012;51.998;7.614;2022-08-21T12:27:26;2.70;;;1.30;;
23670;SDS011;12012;51.998;7.614;2022-08-21T12:30:06;4.20;;;1.15;;
23670;SDS011;12012;51.998;7.614;2022-08-21T12:32:45;3.10;;;1.15;;
23670;SDS011;12012;51.998;7.614;2022-08-21T12:35:20;2.28;;;1.20;;
23670;SDS011;12012;51.998;7.614;2022-08-21T12:37:50;3.13;;;1.35;;
23670;SDS011;12012;51.998;7.614;2022-08-21T12:40:32;2.90;;;1.10;;
23670;SDS011;12012;51.998;7.614;2022-08-21T12:43:05;3.03;;;1.13;;
23670;SDS011;12012;51.998;7.614;2022-08-21T12:45:42;2.80;;;1.17;;
23670;SDS011;12012;51.998;7.614;2022-08-21T12:48:14;4.10;;;1.42;;
23670;SDS011;12012;51.998;7.614;2022-08-21T12:50:53;2.25;;;1.17;;
23670;SDS011;12012;51.998;7.614;2022-08-21T12:56:18;3.85;;;1.20;;
23670;SDS011;12012;51.998;7.614;2022-08-21T12:58:56;3.20;;;1.30;;
23670;SDS011;12012;51.998;7.614;2022-08-21T13:04:10;1.85;;;1.00;;
23670;SDS011;12012;51.998;7.614;2022-08-21T13:06:39;3.22;;;1.08;;
23670;SDS011;12012;51.998;7.614;2022-08-21T13:09:11;2.55;;;1.20;;
23670;SDS011;12012;51.998;7.614;2022-08-21T13:11:40;3.80;;;1.20;;
23670;SDS011;12012;51.998;7.614;2022-08-21T13:14:10;3.90;;;1.23;;
23670;SDS011;12012;51.998;7.614;2022-08-21T13:16:45;2.00;;;1.02;;
23670;SDS011;12012;51.998;7.614;2022-08-21T13:19:15;2.45;;;1.10;;
23670;SDS011;12012;51.998;7.614;2022-08-21T13:21:42;2.75;;;1.13;;
23670;SDS011;12012;51.998;7.614;2022-08-21T13:24:19;5.07;;;1.35;;
23670;SDS011;12012;51.998;7.614;2022-08-21T13:26:54;2.83;;;1.23;;
23670;SDS011;12012;51.998;7.614;2022-08-21T13:29:22;3.00;;;1.40;;
23670;SDS011;12012;51.998;7.614;2022-08-21T13:31:55;1.98;;;1.00;;
23670;SDS011;12012;51.998;7.614;2022-08-21T13:34:24;3.65;;;1.50;;
23670;SDS011;12012;51.998;7.614;2022-08-21T13:36:56;3.88;;;1.23;;
23670;SDS011;12012;51.998;7.614;2022-08-21T13:39:23;4.75;;;1.20;;
23670;SDS011;12012;51.998;7.614;2022-08-21T13:41:51;3.22;;;1.13;;
23670;SDS011;12012;51.998;7.614;2022-08-21T13:44:22;3.30;;;1.25;;
23670;SDS011;12012;51.998;7.614;2022-08-21T13:46:52;4.53;;;1.40;;
23670;SDS011;12012;51.998;7.614;2022-08-21T13:49:19;2.90;;;1.15;;
23670;SDS011;12012;51.998;7.614;2022-08-21T13:51:49;2.05;;;1.05;;
23670;SDS011;12012;51.998;7.614;2022-08-21T13:54:27;1.95;;;1.20;;
23670;SDS011;12012;51.998;7.614;2022-08-21T13:56:58;3.00;;;1.10;;
23670;SDS011;12012;51.998;7.614;2022-08-21T13:59:31;4.00;;;1.58;;
23670;SDS011;12012;51.998;7.614;2022-08-21T14:04:35;2.75;;;1.17;;
23670;SDS011;12012;51.998;7.614;2022-08-21T14:07:13;2.03;;;1.23;;
23670;SDS011;12012;51.998;7.614;2022-08-21T14:09:45;4.88;;;1.55;;
23670;SDS011;12012;51.998;7.614;2022-08-21T14:12:16;3.72;;;1.40;;
23670;SDS011;12012;51.998;7.614;2022-08-21T14:14:48;4.28;;;1.40;;
23670;SDS011;12012;51.998;7.614;2022-08-21T14:17:14;3.40;;;1.45;;
23670;SDS011;12012;51.998;7.614;2022-08-21T14:19:58;3.10;;;1.55;;
23670;SDS011;12012;51.998;7.614;2022-08-21T14:22:29;4.30;;;1.40;;
23670;SDS011;12012;51.998;7.614;2022-08-21T14:24:59;3.45;;;1.30;;
23670;SDS011;12012;51.998;7.614;2022-08-21T14:27:38;1.67;;;1.00;;
23670;SDS011;12012;51.998;7.614;2022-08-21T14:30:12;2.47;;;1.13;;
23670;SDS011;12012;51.998;7.614;2022-08-21T14:32:42;3.50;;;1.50;;
23670;SDS011;12012;51.998;7.614;2022-08-21T14:35:09;3.67;;;1.30;;
23670;SDS011;12012;51.998;7.614;2022-08-21T14:37:35;4.72;;;1.52;;
23670;SDS011;12012;51.998;7.614;2022-08-21T14:40:02;3.67;;;1.45;;
23670;SDS011;12012;51.998;7.614;2022-08-21T14:42:29;2.38;;;1.20;;
23670;SDS011;12012;51.998;7.614;2022-08-21T14:44:59;2.70;;;1.25;;
23670;SDS011;12012;51.998;7.614;2022-08-21T14:47:27;2.90;;;1.40;;
23670;SDS011;12012;51.998;7.614;2022-08-21T14:49:53;2.97;;;1.42;;
23670;SDS011;12012;51.998;7.614;2022-08-21T14:52:19;4.85;;;1.50;;
23670;SDS011;12012;51.998;7.614;2022-08-21T14:54:45;1.95;;;1.20;;
23670;SDS011;12012;51.998;7.614;2022-08-21T14:57:11;4.97;;;1.73;;
23670;SDS011;12012;51.998;7.614;2022-08-21T14:59:37;2.58;;;1.20;;
23670;SDS011;12012;51.998;7.614;2022-08-21T15:02:04;3.30;;;1.30;;
23670;SDS011;12012;51.998;7.614;2022-08-21T15:04:31;3.45;;;1.60;;
23670;SDS011;12012;51.998;7.614;2022-08-21T15:06:57;3.60;;;1.20;;
23670;SDS011;12012;51.998;7.614;2022-08-21T15:09:22;2.00;;;1.25;;
23670;SDS011;12012;51.998;7.614;2022-08-21T15:11:48;3.53;;;1.20;;
23670;SDS011;12012;51.998;7.614;2022-08-21T15:14:23;2.53;;;1.10;;
23670;SDS011;12012;51.998;7.614;2022-08-21T15:16:50;3.97;;;1.23;;
23670;SDS011;12012;51.998;7.614;2022-08-21T15:19:17;2.50;;;1.25;;
23670;SDS011;12012;51.998;7.614;2022-08-21T15:21:43;2.85;;;1.30;;
23670;SDS011;12012;51.998;7.614;2022-08-21T15:24:08;2.88;;;1.40;;
23670;SDS011;12012;51.998;7.614;2022-08-21T15:26:35;3.03;;;1.20;;
23670;SDS011;12012;51.998;7.614;2022-08-21T15:29:01;2.72;;;1.10;;
23670;SDS011;12012;51.998;7.614;2022-08-21T15:31:28;2.95;;;1.30;;
23670;SDS011;12012;51.998;7.614;2022-08-21T15:33:54;2.80;;;1.35;;
23670;SDS011;12012;51.998;7.614;2022-08-21T15:36:20;4.68;;;1.40;;
23670;SDS011;12012;51.998;7.614;2022-08-21T15:38:45;3.83;;;1.40;;
23670;SDS011;12012;51.998;7.614;2022-08-21T15:41:11;5.95;;;1.92;;
23670;SDS011;12012;51.998;7.614;2022-08-21T15:43:47;4.65;;;1.65;;
23670;SDS011;12012;51.998;7.614;2022-08-21T15:46:15;4.38;;;1.20;;
23670;SDS011;12012;51.998;7.614;2022-08-21T15:48:42;4.22;;;1.20;;
23670;SDS011;12012;51.998;7.614;2022-08-21T15:51:09;4.15;;;1.30;;
23670;SDS011;12012;51.998;7.614;2022-08-21T15:53:35;3.42;;;1.60;;
23670;SDS011;12012;51.998;7.614;2022-08-21T15:56:04;2.20;;;1.00;;
23670;SDS011;12012;51.998;7.614;2022-08-21T15:58:31;5.28;;;1.63;;
23670;SDS011;12012;51.998;7.614;2022-08-21T16:01:00;2.67;;;1.20;;
23670;SDS011;12012;51.998;7.614;2022-08-21T16:03:26;4.25;;;1.30;;
23670;SDS011;12012;51.998;7.614;2022-08-21T16:05:52;3.47;;;1.40;;
23670;SDS011;12012;51.998;7.614;2022-08-21T16:08:20;3.22;;;1.42;;
23670;SDS011;12012;51.998;7.614;2022-08-21T16:10:46;4.75;;;1.30;;
23670;SDS011;12012;51.998;7.614;2022-08-21T16:13:34;2.47;;;1.45;;
23670;SDS011;12012;51.998;7.614;2022-08-21T16:16:02;2.27;;;1.17;;
23670;SDS011;12012;51.998;7.614;2022-08-21T16:18:29;2.90;;;1.23;;
23670;SDS011;12012;51.998;7.614;2022-08-21T16:20:55;5.20;;;1.52;;
23670;SDS011;12012;51.998;7.614;2022-08-21T16:23:21;4.50;;;1.52;;
23670;SDS011;12012;51.998;7.614;2022-08-21T16:25:46;3.25;;;1.30;;
23670;SDS011;12012;51.998;7.614;2022-08-21T16:28:13;2.85;;;1.38;;
23670;SDS011;12012;51.998;7.614;2022-08-21T16:30:42;2.83;;;1.33;;
23670;SDS011;12012;51.998;7.614;2022-08-21T16:33:14;3.55;;;1.25;;
23670;SDS011;12012;51.998;7.614;2022-08-21T16:35:49;4.13;;;1.67;;
23670;SDS011;12012;51.998;7.614;2022-08-21T16:38:15;4.43;;;1.42;;